Morea, Pennsylvania
Current Conditions -  °F | °C
As of 9:15 AM on Tuesday 27 Jan 2015 (Local Time) from KHZL Reporting Station
Overcast Overcast  
Wind Chill:   Ceiling: 6500
Heat Index: 19°   Visibility: 10mi
Dew Point: 12°   Wind: 12mph
Humidity: 74%   Direction: 340°NNW
Pressure: 29.73"   Gusts: 16mph
Location:  40.8128°N, 76.1382°W
Report Text: KHZL 271415Z AUTO 34010G14KT 10SM OVC065 M07/M11 A2973 RMK AO2 LTG DSNT SE
Loading
Personal Weather Stations






























Interactive Weather Map New forecast layout! Learn more

10-Day Weather Forecast

Advertisements
Track Severe Weather on mobile